Time;durP1;ratioP1;P1;durP2;ratioP2;P2;SDS_P1;SDS_P2;PMS_P1;PMS_P2;Temp;Humidity;BMP_temperature;BMP_pressure;BME280_temperature;BME280_humidity;BME280_pressure;Samples;Min_cycle;Max_cycle;Signal;HPM_P1;HPM_P2
2021/07/03 00:00:35;;;;;;;10.13;6.03;;;12.60;99.90;;;;;;5025678;28;20211;-74
2021/07/03 00:03:00;;;;;;;7.65;5.65;;;12.50;99.90;;;;;;5025905;28;20186;-73
2021/07/03 00:05:26;;;;;;;8.93;6.07;;;12.40;99.90;;;;;;5025217;28;20271;-74
2021/07/03 00:07:52;;;;;;;9.35;6.28;;;12.40;99.90;;;;;;5026167;28;20199;-74
2021/07/03 00:10:19;;;;;;;7.90;5.68;;;12.40;99.90;;;;;;5026540;28;20207;-73
2021/07/03 00:12:45;;;;;;;13.35;6.45;;;12.40;99.90;;;;;;5025342;28;20187;-74
2021/07/03 00:15:15;;;;;;;9.40;6.93;;;12.50;99.90;;;;;;5024508;28;20179;-74
2021/07/03 00:17:41;;;;;;;7.85;5.38;;;12.50;99.90;;;;;;5025554;28;20244;-74
2021/07/03 00:20:09;;;;;;;7.57;6.07;;;12.50;99.90;;;;;;5024162;28;20206;-74
2021/07/03 00:22:35;;;;;;;9.52;6.00;;;12.60;99.90;;;;;;5025261;28;20650;-73
2021/07/03 00:25:00;;;;;;;9.43;6.43;;;12.50;99.90;;;;;;5025303;28;20269;-73
2021/07/03 00:27:26;;;;;;;9.60;5.75;;;12.40;99.90;;;;;;5024447;28;20238;-74
2021/07/03 00:29:52;;;;;;;9.93;6.93;;;12.40;99.90;;;;;;5025228;28;20574;-73
2021/07/03 00:32:17;;;;;;;9.50;6.20;;;12.40;99.90;;;;;;5024730;28;20187;-75
2021/07/03 00:34:43;;;;;;;7.93;5.38;;;12.30;99.90;;;;;;5025057;28;20590;-75
2021/07/03 00:37:08;;;;;;;8.18;5.82;;;12.30;99.90;;;;;;5024441;28;20270;-75
2021/07/03 00:39:34;;;;;;;9.25;6.57;;;12.30;99.90;;;;;;5025283;28;20230;-73
2021/07/03 00:42:00;;;;;;;9.25;6.70;;;12.30;99.90;;;;;;5024681;28;20191;-74
2021/07/03 00:44:30;;;;;;;9.02;6.93;;;12.30;99.90;;;;;;5024607;28;20256;-75
2021/07/03 00:46:56;;;;;;;8.32;6.07;;;12.30;99.90;;;;;;5024447;28;20183;-74
2021/07/03 00:49:22;;;;;;;8.65;6.15;;;12.30;99.90;;;;;;5024758;28;20539;-75
2021/07/03 00:51:48;;;;;;;7.93;5.97;;;12.20;99.90;;;;;;5024548;28;20183;-77
2021/07/03 00:54:14;;;;;;;7.97;5.15;;;12.10;99.90;;;;;;5023802;28;20190;-73
2021/07/03 00:56:40;;;;;;;7.32;5.30;;;12.00;99.90;;;;;;5023797;28;20179;-73
2021/07/03 00:59:05;;;;;;;8.13;5.68;;;11.80;99.90;;;;;;5024654;28;20206;-73
2021/07/03 01:01:31;;;;;;;7.88;5.80;;;11.60;99.90;;;;;;5022925;28;20229;-75
2021/07/03 01:03:57;;;;;;;9.63;6.07;;;11.60;99.90;;;;;;5023929;28;20228;-72
2021/07/03 01:06:25;;;;;;;8.13;5.40;;;11.50;99.90;;;;;;5023331;28;20613;-74
2021/07/03 01:08:51;;;;;;;8.75;6.13;;;11.40;99.90;;;;;;5024273;28;20238;-74
2021/07/03 01:11:29;;;;;;;7.18;4.88;;;11.40;99.90;;;;;;5024265;28;20225;-73
2021/07/03 01:13:55;;;;;;;7.35;5.43;;;11.50;99.90;;;;;;5023695;28;20191;-74
2021/07/03 01:16:21;;;;;;;9.75;5.68;;;11.50;99.90;;;;;;5023106;28;20190;-74
2021/07/03 01:18:47;;;;;;;13.43;5.53;;;11.60;99.90;;;;;;5024308;28;20183;-74
2021/07/03 01:21:16;;;;;;;7.97;5.50;;;11.70;99.90;;;;;;5023837;28;20198;-73
2021/07/03 01:23:43;;;;;;;9.88;4.80;;;11.70;99.90;;;;;;5024007;28;20203;-74
2021/07/03 01:26:08;;;;;;;8.60;6.07;;;11.70;99.90;;;;;;5022419;28;20531;-74
2021/07/03 01:28:34;;;;;;;9.15;5.80;;;11.80;99.90;;;;;;5023780;28;20186;-74
2021/07/03 01:31:00;;;;;;;7.72;4.65;;;11.70;99.90;;;;;;5024182;28;20193;-75
2021/07/03 01:33:25;;;;;;;9.40;6.35;;;11.80;99.90;;;;;;5023732;28;20274;-73
2021/07/03 01:35:51;;;;;;;10.32;6.55;;;11.80;99.90;;;;;;5023488;28;20550;-73
2021/07/03 01:38:22;;;;;;;8.38;6.30;;;11.70;99.90;;;;;;5022292;28;20204;-77
2021/07/03 01:40:48;;;;;;;10.25;6.57;;;11.60;99.90;;;;;;5023988;28;20207;-73
2021/07/03 01:43:25;;;;;;;10.02;6.90;;;11.70;99.90;;;;;;5022519;28;20186;-75
2021/07/03 01:45:52;;;;;;;7.60;5.82;;;11.80;99.90;;;;;;5023320;28;20187;-75
2021/07/03 01:48:32;;;;;;;8.48;5.47;;;11.80;99.90;;;;;;5024189;28;20266;-74
2021/07/03 01:50:58;;;;;;;7.78;5.72;;;11.70;99.90;;;;;;5023846;28;20185;-73
2021/07/03 01:53:26;;;;;;;7.55;5.78;;;11.60;99.90;;;;;;5023535;28;20438;-73
2021/07/03 01:55:52;;;;;;;10.60;5.55;;;11.60;99.90;;;;;;5023254;28;20191;-73
2021/07/03 01:58:23;;;;;;;7.25;5.65;;;11.60;99.90;;;;;;5023401;28;21009;-75
2021/07/03 02:00:50;;;;;;;8.07;5.35;;;11.60;99.90;;;;;;5023851;28;20207;-73
2021/07/03 02:03:15;;;;;;;7.93;5.60;;;11.50;99.90;;;;;;5023354;28;20194;-73
2021/07/03 02:05:42;;;;;;;9.50;5.28;;;11.50;99.90;;;;;;5023177;28;20190;-72
2021/07/03 02:08:07;;;;;;;11.65;5.50;;;11.50;99.90;;;;;;5023171;28;20201;-73
2021/07/03 02:10:33;;;;;;;8.40;5.22;;;11.50;99.90;;;;;;5023437;28;20206;-77
2021/07/03 02:12:59;;;;;;;9.02;5.93;;;11.50;99.90;;;;;;5022887;28;20557;-75
2021/07/03 02:15:25;;;;;;;9.60;5.43;;;11.50;99.90;;;;;;5021063;28;20190;-74
2021/07/03 02:17:50;;;;;;;9.18;6.00;;;11.60;99.90;;;;;;5023454;28;20186;-73
2021/07/03 02:20:16;;;;;;;10.93;5.90;;;11.60;99.90;;;;;;5023108;28;20558;-73
2021/07/03 02:22:42;;;;;;;7.63;5.03;;;11.70;99.90;;;;;;5023373;28;20191;-72
2021/07/03 02:25:08;;;;;;;15.73;7.25;;;11.60;99.90;;;;;;5022300;28;20214;-73
2021/07/03 02:27:34;;;;;;;12.07;5.57;;;11.70;99.90;;;;;;5022848;28;20205;-74
2021/07/03 02:30:01;;;;;;;6.90;5.28;;;11.60;99.90;;;;;;5023323;28;20606;-76
2021/07/03 02:32:27;;;;;;;7.25;5.35;;;11.50;99.90;;;;;;5022820;28;20282;-75
2021/07/03 02:34:53;;;;;;;7.88;5.45;;;11.50;99.90;;;;;;5023104;28;20273;-73
2021/07/03 02:37:18;;;;;;;9.52;5.82;;;11.40;99.90;;;;;;5024191;28;20186;-74
2021/07/03 02:39:44;;;;;;;7.95;5.88;;;11.30;99.90;;;;;;5027375;28;20202;-74
2021/07/03 02:42:10;;;;;;;7.18;5.43;;;11.30;99.90;;;;;;5026440;28;20183;-74
2021/07/03 02:44:35;;;;;;;10.13;6.10;;;11.50;99.90;;;;;;5026455;28;20211;-73
2021/07/03 02:47:01;;;;;;;7.78;5.80;;;11.50;99.90;;;;;;5026592;28;20186;-73
2021/07/03 02:49:27;;;;;;;8.10;6.22;;;11.50;99.90;;;;;;5027116;28;20280;-75
2021/07/03 02:51:52;;;;;;;8.63;6.18;;;11.40;99.90;;;;;;5027014;28;20187;-74
2021/07/03 02:54:18;;;;;;;10.80;6.57;;;11.50;99.90;;;;;;5026971;28;20197;-74
2021/07/03 02:56:44;;;;;;;10.70;5.97;;;11.50;99.90;;;;;;5026075;28;20190;-73
2021/07/03 02:59:09;;;;;;;6.90;5.47;;;11.50;99.90;;;;;;5026711;28;20698;-73
2021/07/03 03:01:35;;;;;;;9.88;5.60;;;11.50;99.90;;;;;;5026691;28;20194;-73
2021/07/03 03:04:00;;;;;;;8.63;5.57;;;11.50;99.90;;;;;;5026588;28;20206;-74
2021/07/03 03:06:26;;;;;;;7.15;5.05;;;11.50;99.90;;;;;;5025844;28;20267;-74
2021/07/03 03:08:52;;;;;;;7.70;5.35;;;11.50;99.90;;;;;;5026236;28;20202;-73
2021/07/03 03:11:18;;;;;;;8.30;5.25;;;11.50;99.90;;;;;;5026570;28;20269;-74
2021/07/03 03:13:43;;;;;;;6.72;5.10;;;11.50;99.90;;;;;;5026187;28;20191;-74
2021/07/03 03:16:09;;;;;;;11.15;5.63;;;11.50;99.90;;;;;;5025648;28;20182;-74
2021/07/03 03:18:35;;;;;;;7.93;5.07;;;11.50;99.90;;;;;;5026423;28;20213;-73
2021/07/03 03:21:00;;;;;;;7.80;4.65;;;11.50;99.90;;;;;;5026638;28;20458;-72
2021/07/03 03:23:26;;;;;;;6.03;4.72;;;11.40;99.90;;;;;;5026014;28;20215;-73
2021/07/03 03:25:52;;;;;;;7.03;4.95;;;11.40;99.90;;;;;;5025705;28;20269;-75
2021/07/03 03:28:18;;;;;;;10.02;5.40;;;11.40;99.90;;;;;;5026142;28;20187;-74
2021/07/03 03:30:43;;;;;;;10.30;5.75;;;11.50;99.90;;;;;;5026267;28;20209;-75
2021/07/03 03:33:09;;;;;;;6.72;5.18;;;11.50;99.90;;;;;;5026319;28;20606;-74
2021/07/03 03:35:35;;;;;;;7.35;5.03;;;11.50;99.90;;;;;;5025561;28;20914;-74
2021/07/03 03:38:01;;;;;;;12.70;5.07;;;11.50;99.90;;;;;;5026200;28;20524;-75
2021/07/03 03:40:27;;;;;;;10.98;5.03;;;11.70;99.90;;;;;;5025734;28;20208;-73
2021/07/03 03:42:54;;;;;;;9.20;5.88;;;11.80;99.90;;;;;;5026042;28;20274;-74
2021/07/03 03:45:20;;;;;;;6.72;5.00;;;11.80;99.90;;;;;;5025140;28;20218;-73
2021/07/03 03:47:46;;;;;;;8.95;5.63;;;11.90;99.90;;;;;;5025339;28;20187;-74
2021/07/03 03:50:12;;;;;;;6.93;4.82;;;12.00;99.90;;;;;;5024894;28;20557;-74
2021/07/03 03:52:39;;;;;;;8.13;5.07;;;12.00;99.90;;;;;;5025643;28;20649;-75
2021/07/03 03:55:05;;;;;;;9.45;5.35;;;12.00;99.90;;;;;;5025480;28;20305;-74
2021/07/03 03:57:31;;;;;;;7.47;4.75;;;11.90;99.90;;;;;;5025673;28;20186;-74
2021/07/03 03:59:57;;;;;;;14.60;6.30;;;12.00;99.90;;;;;;5025362;28;20206;-75
2021/07/03 04:02:24;;;;;;;6.82;4.90;;;12.00;99.90;;;;;;5025554;28;20277;-73
2021/07/03 04:04:53;;;;;;;7.95;4.97;;;12.20;99.90;;;;;;5024999;28;20207;-75
2021/07/03 04:07:19;;;;;;;7.10;4.13;;;12.10;99.90;;;;;;5025374;28;20225;-74
2021/07/03 04:09:46;;;;;;;6.20;4.88;;;12.20;99.90;;;;;;5025726;28;20198;-74
2021/07/03 04:12:13;;;;;;;12.98;5.35;;;12.30;99.90;;;;;;5024997;28;20659;-74
2021/07/03 04:14:38;;;;;;;7.97;4.13;;;12.40;99.90;;;;;;5024609;28;20191;-74
2021/07/03 04:17:04;;;;;;;7.00;4.78;;;12.50;99.90;;;;;;5025308;28;20650;-73
2021/07/03 04:19:31;;;;;;;7.32;4.43;;;12.50;99.90;;;;;;5024991;28;20211;-73
2021/07/03 04:21:57;;;;;;;6.55;4.35;;;12.70;99.90;;;;;;5023913;28;20175;-73
2021/07/03 04:24:23;;;;;;;8.18;5.25;;;12.80;99.90;;;;;;5025344;28;20755;-73
2021/07/03 04:26:49;;;;;;;7.18;4.57;;;12.90;99.90;;;;;;5024521;28;20824;-73
2021/07/03 04:29:15;;;;;;;6.35;4.03;;;13.10;99.90;;;;;;5024933;28;20207;-74
2021/07/03 04:31:40;;;;;;;8.25;4.88;;;13.20;99.90;;;;;;5024876;28;20190;-74
2021/07/03 04:34:06;;;;;;;6.05;4.00;;;13.30;99.90;;;;;;5025236;28;20187;-73
2021/07/03 04:36:32;;;;;;;8.50;5.07;;;13.40;99.90;;;;;;5024114;28;20186;-73
2021/07/03 04:38:57;;;;;;;8.45;4.50;;;13.30;99.90;;;;;;5025152;28;20206;-74
2021/07/03 04:41:23;;;;;;;8.10;4.28;;;13.40;99.90;;;;;;5024901;28;20186;-73
2021/07/03 04:43:49;;;;;;;7.75;4.60;;;13.50;99.90;;;;;;5024672;28;20576;-75
2021/07/03 04:46:16;;;;;;;6.75;4.55;;;13.60;99.90;;;;;;5023972;28;20260;-77
2021/07/03 04:48:41;;;;;;;6.80;5.00;;;13.60;99.90;;;;;;5024435;28;20190;-75
2021/07/03 04:51:10;;;;;;;7.25;4.40;;;13.80;99.90;;;;;;5024724;28;20187;-73
2021/07/03 04:53:36;;;;;;;6.22;4.65;;;13.80;99.90;;;;;;5024186;28;20198;-73
2021/07/03 04:56:02;;;;;;;7.03;4.65;;;13.90;99.90;;;;;;5024023;28;20343;-73
2021/07/03 04:58:27;;;;;;;7.18;4.47;;;14.00;99.90;;;;;;5024385;28;20205;-73
2021/07/03 05:00:53;;;;;;;7.68;4.78;;;14.10;99.90;;;;;;5023907;28;20210;-74
2021/07/03 05:03:18;;;;;;;13.88;5.40;;;14.30;99.90;;;;;;5024279;28;20191;-73
2021/07/03 05:05:44;;;;;;;9.02;4.78;;;14.50;99.90;;;;;;5023796;28;20561;-74
2021/07/03 05:08:10;;;;;;;9.48;4.65;;;14.60;99.90;;;;;;5024207;28;20251;-72
2021/07/03 05:10:35;;;;;;;4.88;4.07;;;14.80;99.90;;;;;;5024188;28;20203;-73
2021/07/03 05:13:01;;;;;;;9.43;5.15;;;15.00;99.90;;;;;;5024226;28;20655;-73
2021/07/03 05:15:32;;;;;;;7.78;4.97;;;15.20;99.90;;;;;;5021741;28;20262;-73
2021/07/03 05:17:58;;;;;;;7.50;5.03;;;15.50;99.90;;;;;;5024120;28;20217;-74
2021/07/03 05:20:23;;;;;;;7.53;4.45;;;15.70;99.90;;;;;;5023995;28;20239;-76
2021/07/03 05:22:49;;;;;;;8.05;5.20;;;15.90;99.90;;;;;;5024322;28;20698;-74
2021/07/03 05:25:14;;;;;;;6.93;4.47;;;16.50;99.90;;;;;;5023340;28;21139;-74
2021/07/03 05:27:40;;;;;;;6.00;4.43;;;17.20;99.90;;;;;;5024183;28;20206;-74
2021/07/03 05:30:06;;;;;;;4.95;3.78;;;17.80;99.90;;;;;;5023830;28;20678;-75
2021/07/03 05:32:32;;;;;;;5.50;4.55;;;18.80;99.90;;;;;;5023959;28;20551;-74
2021/07/03 05:34:58;;;;;;;5.95;4.45;;;19.80;99.90;;;;;;5023551;28;20182;-73
2021/07/03 05:37:23;;;;;;;5.05;3.90;;;20.70;99.90;;;;;;5023767;28;20239;-74
2021/07/03 05:39:49;;;;;;;6.07;4.15;;;21.50;99.90;;;;;;5023821;28;20615;-75
2021/07/03 05:42:15;;;;;;;5.90;3.88;;;21.80;99.90;;;;;;5023383;28;20652;-73
2021/07/03 05:44:40;;;;;;;5.50;3.97;;;22.10;99.90;;;;;;5023437;28;20297;-74
2021/07/03 05:47:06;;;;;;;6.28;4.15;;;22.50;99.90;;;;;;5023608;28;20210;-73
2021/07/03 05:49:33;;;;;;;4.72;3.60;;;23.00;99.90;;;;;;5022933;28;20661;-73
2021/07/03 05:51:58;;;;;;;5.13;4.40;;;23.10;99.90;;;;;;5023503;28;20179;-78
2021/07/03 05:54:24;;;;;;;5.78;3.50;;;23.10;99.90;;;;;;5023814;28;20190;-73
2021/07/03 05:56:50;;;;;;;11.27;4.63;;;23.30;99.90;;;;;;5023133;28;20182;-73
2021/07/03 05:59:16;;;;;;;5.68;4.07;;;23.40;99.90;;;;;;5023597;28;20580;-73
2021/07/03 06:01:41;;;;;;;4.47;3.47;;;23.80;99.90;;;;;;5023698;28;20187;-78
2021/07/03 06:04:07;;;;;;;5.70;4.10;;;24.00;99.90;;;;;;5023698;28;20225;-74
2021/07/03 06:06:33;;;;;;;5.00;3.75;;;24.00;99.90;;;;;;5023895;28;20170;-72
2021/07/03 06:08:59;;;;;;;4.65;3.70;;;24.00;99.90;;;;;;5022981;28;20260;-74
2021/07/03 06:11:24;;;;;;;4.90;4.25;;;24.10;99.90;;;;;;5023864;28;20182;-73
2021/07/03 06:13:50;;;;;;;4.50;3.78;;;24.00;99.90;;;;;;5029763;28;20516;-74
2021/07/03 06:16:16;;;;;;;4.45;3.92;;;24.20;99.90;;;;;;5029209;28;20676;-74
2021/07/03 06:18:41;;;;;;;5.90;4.00;;;24.40;99.90;;;;;;5030014;28;20244;-73
2021/07/03 06:21:07;;;;;;;6.65;4.35;;;24.30;99.90;;;;;;5030074;28;20281;-73
2021/07/03 06:23:32;;;;;;;5.15;4.22;;;24.40;99.90;;;;;;5030140;28;20437;-74
2021/07/03 06:26:03;;;;;;;4.68;4.00;;;24.40;99.90;;;;;;5029649;28;20257;-72
2021/07/03 06:28:31;;;;;;;5.55;4.30;;;24.60;99.90;;;;;;5028604;28;20225;-74
2021/07/03 06:30:56;;;;;;;4.55;4.03;;;24.50;99.90;;;;;;5029145;28;20178;-73
2021/07/03 06:33:22;;;;;;;5.68;3.85;;;24.70;99.90;;;;;;5030279;28;20725;-75
2021/07/03 06:35:48;;;;;;;5.18;4.40;;;24.80;99.90;;;;;;5029698;28;20190;-73
2021/07/03 06:38:13;;;;;;;8.38;5.53;;;24.90;99.90;;;;;;5029478;28;20185;-74
2021/07/03 06:40:39;;;;;;;6.10;4.35;;;24.90;99.90;;;;;;5029953;28;20264;-74
2021/07/03 06:43:05;;;;;;;8.40;4.55;;;24.60;99.90;;;;;;5029504;28;20430;-73
2021/07/03 06:45:30;;;;;;;6.45;4.65;;;24.30;99.90;;;;;;5028800;28;20238;-72
2021/07/03 06:47:56;;;;;;;5.82;4.97;;;23.50;99.90;;;;;;5029668;28;20193;-73
2021/07/03 06:50:21;;;;;;;6.60;4.75;;;23.00;99.90;;;;;;5029652;28;20226;-73
2021/07/03 06:52:47;;;;;;;7.05;5.00;;;22.60;99.90;;;;;;5029990;28;20541;-74
2021/07/03 06:55:28;;;;;;;6.25;4.65;;;22.20;99.90;;;;;;5028136;28;20202;-73
2021/07/03 06:57:54;;;;;;;6.80;4.90;;;22.20;99.90;;;;;;5029870;28;20185;-73
2021/07/03 07:00:20;;;;;;;8.27;5.18;;;21.80;99.90;;;;;;5029486;28;20245;-73
2021/07/03 07:02:45;;;;;;;8.18;4.95;;;21.90;99.90;;;;;;5029653;28;20650;-73
2021/07/03 07:05:11;;;;;;;6.80;4.68;;;21.70;99.90;;;;;;5029376;28;20207;-73
2021/07/03 07:07:37;;;;;;;6.40;4.70;;;21.60;99.90;;;;;;5029404;28;20281;-72
2021/07/03 07:10:03;;;;;;;7.07;4.75;;;21.60;99.90;;;;;;5029814;28;20286;-73
2021/07/03 07:12:29;;;;;;;8.93;4.78;;;21.60;99.90;;;;;;5028776;28;20517;-72
2021/07/03 07:14:55;;;;;;;6.18;4.65;;;21.70;99.90;;;;;;5028993;28;20194;-73
2021/07/03 07:17:21;;;;;;;7.82;4.57;;;21.80;99.90;;;;;;5029138;28;20650;-73
2021/07/03 07:19:46;;;;;;;8.38;5.35;;;21.80;99.90;;;;;;5029757;28;20237;-72
2021/07/03 07:22:12;;;;;;;8.77;5.30;;;21.90;99.90;;;;;;5029148;28;20190;-73
2021/07/03 07:24:38;;;;;;;9.32;5.50;;;21.80;99.90;;;;;;5025880;28;20217;-73
2021/07/03 07:27:03;;;;;;;13.15;6.05;;;21.90;99.90;;;;;;5026155;28;20195;-73
2021/07/03 07:29:29;;;;;;;7.07;5.43;;;22.00;99.90;;;;;;5025507;28;20210;-73
2021/07/03 07:31:54;;;;;;;8.07;4.53;;;22.00;99.90;;;;;;5026332;28;20707;-76
2021/07/03 07:34:20;;;;;;;6.38;4.30;;;21.90;99.90;;;;;;5025885;28;20195;-72
2021/07/03 07:36:46;;;;;;;5.88;4.25;;;21.80;99.90;;;;;;5025966;28;20187;-73
2021/07/03 07:39:12;;;;;;;5.93;4.10;;;21.90;99.90;;;;;;5024137;28;20206;-73
2021/07/03 07:41:38;;;;;;;6.50;4.93;;;22.10;99.90;;;;;;5026025;28;20175;-73
2021/07/03 07:44:04;;;;;;;6.40;4.82;;;22.20;99.90;;;;;;5025616;28;20218;-72
2021/07/03 07:46:30;;;;;;;6.13;4.60;;;22.20;99.90;;;;;;5025193;28;20186;-73
2021/07/03 07:48:57;;;;;;;7.15;5.47;;;22.30;99.90;;;;;;5026115;28;20203;-73
2021/07/03 07:51:23;;;;;;;5.55;4.53;;;22.60;99.90;;;;;;5026390;28;20210;-73
2021/07/03 07:53:49;;;;;;;7.32;5.00;;;22.60;99.90;;;;;;5025196;28;20608;-72
2021/07/03 07:56:18;;;;;;;5.35;4.45;;;22.60;99.90;;;;;;5024997;28;20226;-73
2021/07/03 07:58:44;;;;;;;7.50;4.88;;;22.50;99.90;;;;;;5025407;28;20185;-73
2021/07/03 08:01:13;;;;;;;6.35;4.47;;;22.50;99.90;;;;;;5026292;28;20658;-72
2021/07/03 08:03:39;;;;;;;6.35;4.35;;;22.30;99.90;;;;;;5024861;28;20716;-73
2021/07/03 08:06:04;;;;;;;6.25;4.70;;;21.90;99.90;;;;;;5025362;28;20669;-73
2021/07/03 08:08:30;;;;;;;7.13;4.57;;;21.80;99.90;;;;;;5019838;28;20211;-73
2021/07/03 08:10:56;;;;;;;6.05;4.40;;;21.90;99.90;;;;;;5021301;28;20206;-72
2021/07/03 08:13:21;;;;;;;6.15;4.30;;;22.30;99.90;;;;;;5024314;28;20194;-75
2021/07/03 08:15:49;;;;;;;6.20;4.68;;;22.30;99.90;;;;;;5023653;28;20194;-74
2021/07/03 08:18:15;;;;;;;6.47;4.28;;;22.60;99.90;;;;;;5024276;28;20182;-74
2021/07/03 08:20:40;;;;;;;8.02;4.78;;;23.00;99.90;;;;;;5023054;28;20674;-74
2021/07/03 08:23:07;;;;;;;5.85;4.32;;;23.10;99.90;;;;;;5024711;28;20192;-73
2021/07/03 08:25:33;;;;;;;5.95;4.60;;;23.20;99.90;;;;;;5022561;28;20195;-74
2021/07/03 08:27:59;;;;;;;5.15;4.25;;;23.30;99.90;;;;;;5023494;28;20542;-72
2021/07/03 08:30:27;;;;;;;6.13;4.28;;;23.30;99.90;;;;;;5024277;28;20698;-73
2021/07/03 08:32:52;;;;;;;7.13;4.55;;;23.50;99.90;;;;;;5022346;28;20187;-73
2021/07/03 08:35:18;;;;;;;5.57;4.50;;;23.50;99.90;;;;;;5023668;28;20190;-74
2021/07/03 08:37:44;;;;;;;7.72;4.85;;;23.80;99.90;;;;;;5024057;28;20230;-73
2021/07/03 08:40:11;;;;;;;5.95;4.88;;;24.30;99.90;;;;;;5024813;28;20218;-74
2021/07/03 08:42:37;;;;;;;6.00;4.38;;;24.40;99.90;;;;;;5024058;28;20435;-73
2021/07/03 08:45:04;;;;;;;5.53;3.75;;;24.60;99.90;;;;;;5023823;28;20289;-72
2021/07/03 08:47:30;;;;;;;5.25;4.35;;;24.70;99.90;;;;;;5023699;28;20209;-73
2021/07/03 08:49:58;;;;;;;6.90;4.65;;;24.70;99.90;;;;;;5024621;28;20395;-72
2021/07/03 08:52:25;;;;;;;6.65;5.18;;;24.70;99.90;;;;;;5023681;28;20183;-73
2021/07/03 08:55:09;;;;;;;6.63;4.00;;;24.80;99.90;;;;;;5023989;28;20195;-73
2021/07/03 08:57:42;;;;;;;5.60;4.40;;;24.70;99.90;;;;;;5023284;28;20175;-72
2021/07/03 09:00:08;;;;;;;4.63;3.83;;;24.50;99.90;;;;;;5023602;28;20297;-74
2021/07/03 09:02:40;;;;;;;5.53;3.97;;;24.30;99.90;;;;;;5023984;28;20189;-74
2021/07/03 09:05:29;;;;;;;4.97;3.70;;;24.00;99.90;;;;;;5023275;28;20199;-73
2021/07/03 09:08:07;;;;;;;4.35;3.78;;;23.70;99.90;;;;;;5023432;28;20681;-72
2021/07/03 09:10:35;;;;;;;5.40;3.97;;;23.90;99.90;;;;;;5023481;28;20285;-78
2021/07/03 09:13:01;;;;;;;7.00;4.75;;;24.20;99.90;;;;;;5023706;28;20229;-74
2021/07/03 09:15:29;;;;;;;6.95;4.20;;;24.50;99.90;;;;;;5022649;28;20539;-72
2021/07/03 09:18:04;;;;;;;5.22;4.43;;;24.70;99.90;;;;;;5023484;28;20301;-74
2021/07/03 09:20:38;;;;;;;4.88;3.45;;;24.40;99.90;;;;;;5022690;28;20823;-75
2021/07/03 09:23:10;;;;;;;3.85;3.28;;;24.30;99.90;;;;;;5024921;28;20563;-73
2021/07/03 09:25:45;;;;;;;5.25;3.38;;;24.00;99.90;;;;;;5024744;28;20245;-73
2021/07/03 09:28:16;;;;;;;5.32;3.70;;;23.60;99.90;;;;;;5024849;28;20178;-72
2021/07/03 09:30:44;;;;;;;5.45;4.38;;;23.30;99.90;;;;;;5024858;28;20568;-74
2021/07/03 09:33:10;;;;;;;4.28;3.42;;;22.90;99.90;;;;;;5025374;28;20167;-74
2021/07/03 09:35:36;;;;;;;5.70;3.60;;;23.10;99.90;;;;;;5024246;28;20233;-72
2021/07/03 09:38:07;;;;;;;4.25;3.70;;;23.40;99.90;;;;;;5023931;28;20209;-73
2021/07/03 09:40:36;;;;;;;5.70;3.75;;;23.50;99.90;;;;;;5024983;28;20206;-73
2021/07/03 09:43:10;;;;;;;3.42;2.97;;;23.40;99.90;;;;;;5022842;28;20543;-74
2021/07/03 09:45:37;;;;;;;3.28;2.92;;;23.20;99.90;;;;;;5023566;28;20195;-75
2021/07/03 09:48:08;;;;;;;3.72;2.45;;;23.10;99.90;;;;;;5022951;28;20183;-75
2021/07/03 09:50:35;;;;;;;2.97;2.50;;;23.10;99.90;;;;;;5024152;28;20735;-74
2021/07/03 09:53:01;;;;;;;3.03;2.45;;;23.30;99.90;;;;;;5023530;28;20690;-73
2021/07/03 09:55:28;;;;;;;4.03;2.58;;;23.70;99.90;;;;;;5021933;28;20187;-75
2021/07/03 09:57:53;;;;;;;3.53;2.30;;;23.80;99.90;;;;;;5023363;28;20244;-74
2021/07/03 10:00:19;;;;;;;2.67;2.42;;;23.90;99.90;;;;;;5016737;22;20513;-76
2021/07/03 10:02:45;;;;;;;4.43;2.17;;;23.70;99.90;;;;;;5004869;28;20197;-76
2021/07/03 10:05:12;;;;;;;3.08;2.33;;;23.60;99.90;;;;;;5013944;28;20261;-76
2021/07/03 10:07:44;;;;;;;2.85;2.35;;;23.70;99.90;;;;;;5003419;28;20208;-76
2021/07/03 10:10:15;;;;;;;2.55;2.35;;;23.40;99.90;;;;;;5004502;28;20879;-76
2021/07/03 10:12:45;;;;;;;3.22;2.45;;;23.10;99.90;;;;;;5010200;28;20262;-75
2021/07/03 10:15:12;;;;;;;3.70;2.25;;;23.10;99.90;;;;;;5012772;28;20199;-76
2021/07/03 10:17:39;;;;;;;2.33;1.98;;;23.40;99.90;;;;;;5004180;28;21207;-75
2021/07/03 10:20:14;;;;;;;2.42;2.22;;;23.50;99.90;;;;;;4996894;28;20242;-76
2021/07/03 10:22:54;;;;;;;3.05;2.40;;;23.80;99.90;;;;;;5009265;28;20186;-76
2021/07/03 10:25:29;;;;;;;2.50;2.30;;;24.30;99.90;;;;;;5007125;28;20210;-76
2021/07/03 10:27:58;;;;;;;3.25;2.10;;;24.20;99.90;;;;;;5004644;28;20209;-76
2021/07/03 10:30:26;;;;;;;3.20;2.35;;;24.40;99.90;;;;;;5001161;28;20324;-76
2021/07/03 10:33:01;;;;;;;2.25;2.05;;;24.50;99.90;;;;;;5015647;28;20186;-76
2021/07/03 10:35:38;;;;;;;2.88;2.22;;;24.70;99.90;;;;;;5006583;28;20183;-76
2021/07/03 10:38:34;;;;;;;3.03;2.42;;;24.50;99.90;;;;;;5004994;28;20194;-76
2021/07/03 10:41:25;;;;;;;2.92;2.35;;;24.40;99.90;;;;;;4996802;28;20345;-75
2021/07/03 10:44:07;;;;;;;2.22;1.83;;;24.20;99.90;;;;;;5009631;28;20264;-76
2021/07/03 10:46:39;;;;;;;2.08;1.70;;;24.40;99.90;;;;;;5008126;28;20194;-76
2021/07/03 10:49:14;;;;;;;1.92;1.73;;;24.50;99.90;;;;;;5007852;28;20183;-75
2021/07/03 10:51:45;;;;;;;1.77;1.63;;;24.50;99.90;;;;;;5007117;28;20206;-74
2021/07/03 10:54:28;;;;;;;3.20;2.40;;;24.70;99.90;;;;;;5009449;28;20198;-76
2021/07/03 10:57:05;;;;;;;2.65;2.20;;;24.60;99.90;;;;;;5001782;28;20235;-76
2021/07/03 10:59:34;;;;;;;3.05;2.10;;;25.00;99.90;;;;;;5006358;28;20202;-76
2021/07/03 11:02:15;;;;;;;2.70;2.00;;;25.30;99.90;;;;;;5018400;28;20204;-75
2021/07/03 11:04:52;;;;;;;1.85;1.42;;;25.20;99.90;;;;;;5012108;28;20615;-76
2021/07/03 11:07:30;;;;;;;1.90;1.73;;;25.10;99.90;;;;;;5006352;28;20708;-76
2021/07/03 11:10:25;;;;;;;1.90;1.80;;;24.90;99.90;;;;;;5008995;28;20222;-75
2021/07/03 11:12:54;;;;;;;2.95;2.03;;;24.90;99.90;;;;;;5012079;28;20183;-76
2021/07/03 11:15:27;;;;;;;1.55;1.45;;;25.00;99.90;;;;;;5006147;28;20211;-76
2021/07/03 11:17:56;;;;;;;1.60;1.50;;;25.00;99.90;;;;;;5009502;28;20215;-75
2021/07/03 11:20:28;;;;;;;2.63;1.90;;;25.20;99.90;;;;;;5013437;28;20485;-75
2021/07/03 11:22:55;;;;;;;2.03;1.80;;;25.30;99.90;;;;;;5014488;28;20188;-76
2021/07/03 11:25:32;;;;;;;2.40;1.98;;;25.50;99.90;;;;;;5005938;28;20715;-76
2021/07/03 11:28:13;;;;;;;1.52;1.35;;;25.60;99.90;;;;;;5009299;28;20301;-76
2021/07/03 11:30:42;;;;;;;2.25;1.83;;;25.50;99.90;;;;;;5005347;28;20772;-76
2021/07/03 11:33:09;;;;;;;2.28;2.08;;;25.70;99.90;;;;;;5007171;28;20183;-76
2021/07/03 11:35:39;;;;;;;2.13;1.75;;;25.50;99.90;;;;;;5006838;28;20277;-76
2021/07/03 11:38:05;;;;;;;2.38;1.92;;;25.30;99.90;;;;;;5004203;28;20302;-76
2021/07/03 11:40:32;;;;;;;1.60;1.50;;;24.80;99.90;;;;;;5004212;28;20192;-75
2021/07/03 11:43:00;;;;;;;2.55;1.60;;;24.50;99.90;;;;;;5010997;28;20678;-76
2021/07/03 11:45:28;;;;;;;1.60;1.48;;;24.50;99.90;;;;;;5006856;28;20492;-76
2021/07/03 11:48:06;;;;;;;2.05;1.85;;;24.70;99.90;;;;;;5008957;28;20273;-75
2021/07/03 11:50:38;;;;;;;1.95;1.80;;;24.80;99.90;;;;;;5002780;28;20183;-76
2021/07/03 11:53:05;;;;;;;2.45;1.73;;;24.90;99.90;;;;;;5004688;28;20187;-75
2021/07/03 11:55:34;;;;;;;1.80;1.60;;;25.20;99.90;;;;;;5003434;28;20274;-76
2021/07/03 11:58:01;;;;;;;1.85;1.65;;;25.20;99.90;;;;;;5006169;28;20215;-76
2021/07/03 12:00:32;;;;;;;21.25;2.35;;;25.40;99.90;;;;;;5004966;28;20198;-76
2021/07/03 12:02:58;;;;;;;2.38;2.00;;;25.50;99.90;;;;;;5004312;28;20585;-76
2021/07/03 12:05:29;;;;;;;2.20;1.75;;;25.50;99.90;;;;;;5003248;28;20318;-76
2021/07/03 12:08:03;;;;;;;2.78;2.13;;;25.60;99.90;;;;;;5007057;28;20627;-76
2021/07/03 12:10:49;;;;;;;3.08;2.10;;;25.90;99.90;;;;;;5004248;28;20179;-76
2021/07/03 12:13:20;;;;;;;2.60;1.98;;;26.00;99.90;;;;;;5009192;28;20190;-75
2021/07/03 12:16:03;;;;;;;1.85;1.70;;;26.40;99.90;;;;;;5003811;28;20191;-76
2021/07/03 12:18:41;;;;;;;1.73;1.63;;;26.60;99.90;;;;;;5010430;28;20199;-76
2021/07/03 12:21:24;;;;;;;2.50;2.00;;;26.60;99.90;;;;;;5011912;28;20191;-75
2021/07/03 12:23:52;;;;;;;2.47;1.95;;;26.50;99.90;;;;;;5009109;28;20247;-76
2021/07/03 12:26:21;;;;;;;2.70;1.90;;;26.60;99.90;;;;;;5003852;28;20184;-76
2021/07/03 12:29:04;;;;;;;3.35;1.70;;;26.50;99.90;;;;;;5009745;28;20187;-76
2021/07/03 12:31:48;;;;;;;1.73;1.63;;;26.50;99.90;;;;;;5003404;28;20179;-76
2021/07/03 12:34:25;;;;;;;2.47;1.85;;;26.50;99.90;;;;;;5004366;28;20277;-77
2021/07/03 12:36:58;;;;;;;2.80;1.60;;;26.60;99.90;;;;;;5008774;28;20206;-75
2021/07/03 12:39:24;;;;;;;1.77;1.63;;;26.60;99.90;;;;;;5018583;28;20662;-76
2021/07/03 12:42:03;;;;;;;2.10;1.83;;;26.90;99.90;;;;;;5003576;28;20679;-76
2021/07/03 12:44:39;;;;;;;2.10;1.90;;;26.40;99.90;;;;;;5008427;28;20218;-76
2021/07/03 12:47:19;;;;;;;2.10;1.83;;;26.50;99.90;;;;;;5005850;28;20680;-76
2021/07/03 12:49:49;;;;;;;2.50;1.70;;;26.60;99.90;;;;;;5002856;28;20187;-74